createdAt,value
2019-04-05T19:28:17.183Z,16.10
2019-04-05T19:48:31.441Z,13.60
2019-04-05T19:50:46.216Z,13.60
2019-04-05T19:53:14.596Z,13.60
2019-04-05T19:55:42.938Z,13.60
2019-04-05T19:58:11.288Z,13.70
2019-04-05T20:00:39.631Z,13.60
2019-04-05T20:03:07.972Z,13.60
2019-04-05T20:05:36.333Z,13.60
2019-04-05T20:08:04.678Z,13.60
2019-04-05T20:10:33.024Z,13.50
2019-04-05T20:13:01.668Z,13.50
2019-04-05T20:15:30.023Z,13.50
2019-04-05T20:17:58.328Z,13.50
2019-04-05T20:20:26.679Z,13.50
2019-04-05T20:22:55.077Z,13.40
2019-04-05T20:25:23.391Z,13.40
2019-04-05T20:27:51.735Z,13.40
2019-04-05T20:30:20.070Z,13.50
2019-04-05T20:32:48.429Z,13.40
2019-04-05T20:35:16.771Z,13.40
2019-04-05T20:37:45.137Z,13.50
2019-04-05T20:40:13.436Z,13.40
2019-04-05T20:42:41.763Z,13.40
2019-04-05T20:45:10.062Z,13.30
2019-04-05T20:47:38.377Z,13.30
2019-04-05T20:50:07.140Z,13.60
2019-04-05T20:52:35.439Z,13.50
2019-04-05T20:55:05.787Z,13.40
2019-04-05T20:57:34.129Z,13.40
2019-04-05T21:00:02.447Z,13.30
2019-04-05T21:02:30.777Z,13.30
2019-04-05T21:04:59.435Z,13.40
2019-04-05T21:07:27.784Z,13.40
2019-04-05T21:09:56.094Z,13.30
2019-04-05T21:12:24.441Z,13.30
2019-04-05T21:14:52.766Z,13.30
2019-04-05T21:17:21.064Z,13.30
2019-04-05T21:19:49.449Z,13.30
2019-04-05T21:22:17.777Z,13.20
2019-04-05T21:24:46.102Z,13.10
2019-04-05T21:27:14.488Z,13.20
2019-04-05T21:29:42.858Z,13.10
2019-04-05T21:32:11.239Z,13.10
2019-04-05T21:34:39.645Z,13.10
2019-04-05T21:37:08.339Z,13.20
2019-04-05T21:39:36.717Z,13.10
2019-04-05T21:42:05.163Z,13.10
2019-04-05T21:44:33.623Z,13.10
2019-04-05T21:47:02.038Z,13.00
2019-04-05T21:49:30.770Z,13.00
2019-04-05T21:51:59.229Z,12.90
2019-04-05T21:54:27.695Z,12.90
2019-04-05T21:56:56.144Z,12.90
2019-04-05T21:59:24.577Z,13.10
2019-04-05T22:01:53.142Z,13.00
2019-04-05T22:04:21.686Z,13.00
2019-04-05T22:06:50.106Z,13.00
2019-04-05T22:09:18.546Z,13.00
2019-04-05T22:11:46.995Z,13.10
2019-04-05T22:14:15.451Z,12.90
2019-04-05T22:16:43.899Z,12.90
2019-04-05T22:19:14.495Z,13.00
2019-04-05T22:21:42.913Z,12.90
2019-04-05T22:24:11.672Z,13.00
2019-04-05T22:26:40.643Z,13.00
2019-04-05T22:29:09.042Z,12.90
2019-04-05T22:35:05.470Z,12.80
2019-04-05T22:37:34.049Z,12.80
2019-04-05T22:40:02.564Z,12.80
2019-04-05T22:42:30.996Z,12.80
2019-04-05T22:44:59.777Z,12.80
2019-04-05T22:47:28.213Z,12.80
2019-04-05T22:49:56.627Z,12.70
2019-04-05T22:52:25.572Z,12.80
2019-04-05T22:54:54.380Z,12.80
2019-04-05T22:57:22.805Z,12.80
2019-04-05T22:59:51.195Z,12.70
2019-04-05T23:02:19.586Z,12.70
2019-04-05T23:04:48.119Z,12.70
2019-04-05T23:07:16.525Z,12.80
2019-04-05T23:09:44.896Z,12.80
2019-04-05T23:12:13.304Z,12.70
2019-04-05T23:14:41.694Z,12.80
2019-04-05T23:17:10.444Z,12.70
2019-04-05T23:19:38.887Z,12.70
2019-04-05T23:22:07.275Z,12.70
2019-04-05T23:24:35.653Z,12.70
2019-04-05T23:27:04.055Z,12.80
2019-04-05T23:29:32.429Z,12.70
2019-04-05T23:32:00.818Z,12.60
2019-04-05T23:34:29.615Z,12.60
2019-04-05T23:36:58.047Z,12.60
2019-04-05T23:39:26.505Z,12.50
2019-04-05T23:41:54.925Z,12.50
2019-04-05T23:44:23.727Z,12.70
2019-04-05T23:46:52.729Z,12.60
2019-04-05T23:49:21.426Z,12.50
2019-04-05T23:51:49.812Z,12.60
2019-04-05T23:54:18.200Z,12.60
2019-04-05T23:56:46.677Z,12.60
2019-04-05T23:59:15.081Z,12.50
